sensor_id;sensor_type;location;lat;lon;timestamp;P1;durP1;ratioP1;P2;durP2;ratioP2
26478;SDS011;14163;-26.142;27.992;2024-03-23T00:53:19;13.77;;;12.47;;
26478;SDS011;14163;-26.142;27.992;2024-03-23T00:55:47;13.87;;;12.57;;
26478;SDS011;14163;-26.142;27.992;2024-03-23T00:58:16;12.53;;;11.37;;
26478;SDS011;14163;-26.142;27.992;2024-03-23T01:00:43;12.23;;;10.93;;
26478;SDS011;14163;-26.142;27.992;2024-03-23T01:03:12;11.80;;;10.60;;
26478;SDS011;14163;-26.142;27.992;2024-03-23T01:05:40;11.37;;;10.37;;
26478;SDS011;14163;-26.142;27.992;2024-03-23T01:08:09;11.13;;;9.53;;
26478;SDS011;14163;-26.142;27.992;2024-03-23T01:10:38;12.07;;;10.90;;
26478;SDS011;14163;-26.142;27.992;2024-03-23T01:13:07;11.50;;;9.90;;
26478;SDS011;14163;-26.142;27.992;2024-03-23T01:15:34;32.73;;;26.97;;
26478;SDS011;14163;-26.142;27.992;2024-03-23T01:18:03;12.80;;;11.60;;
26478;SDS011;14163;-26.142;27.992;2024-03-23T01:20:31;10.53;;;9.43;;
26478;SDS011;14163;-26.142;27.992;2024-03-23T01:23:00;11.70;;;9.97;;
26478;SDS011;14163;-26.142;27.992;2024-03-23T01:25:28;9.10;;;8.20;;
26478;SDS011;14163;-26.142;27.992;2024-03-23T01:27:58;9.70;;;8.70;;
26478;SDS011;14163;-26.142;27.992;2024-03-23T01:30:26;11.00;;;9.13;;
26478;SDS011;14163;-26.142;27.992;2024-03-23T01:32:56;11.93;;;8.70;;
26478;SDS011;14163;-26.142;27.992;2024-03-23T01:35:23;54.40;;;44.37;;
26478;SDS011;14163;-26.142;27.992;2024-03-23T01:37:52;15.97;;;13.23;;
26478;SDS011;14163;-26.142;27.992;2024-03-23T01:40:20;11.53;;;9.17;;
26478;SDS011;14163;-26.142;27.992;2024-03-23T01:42:55;10.77;;;9.17;;
26478;SDS011;14163;-26.142;27.992;2024-03-23T01:45:25;11.07;;;8.93;;
26478;SDS011;14163;-26.142;27.992;2024-03-23T01:47:54;9.27;;;8.23;;
26478;SDS011;14163;-26.142;27.992;2024-03-23T01:50:22;9.57;;;8.50;;
26478;SDS011;14163;-26.142;27.992;2024-03-23T01:52:51;10.60;;;7.93;;
26478;SDS011;14163;-26.142;27.992;2024-03-23T01:55:19;8.90;;;8.00;;
26478;SDS011;14163;-26.142;27.992;2024-03-23T01:57:48;8.27;;;7.50;;
26478;SDS011;14163;-26.142;27.992;2024-03-23T02:00:18;8.67;;;7.87;;
26478;SDS011;14163;-26.142;27.992;2024-03-23T02:02:47;8.80;;;7.70;;
26478;SDS011;14163;-26.142;27.992;2024-03-23T02:05:15;10.83;;;8.10;;
26478;SDS011;14163;-26.142;27.992;2024-03-23T02:07:44;8.73;;;7.83;;
26478;SDS011;14163;-26.142;27.992;2024-03-23T02:10:11;8.53;;;7.10;;
26478;SDS011;14163;-26.142;27.992;2024-03-23T02:12:40;8.10;;;7.30;;
26478;SDS011;14163;-26.142;27.992;2024-03-23T02:15:08;8.73;;;7.83;;
26478;SDS011;14163;-26.142;27.992;2024-03-23T02:17:38;8.93;;;7.57;;
26478;SDS011;14163;-26.142;27.992;2024-03-23T02:20:06;8.37;;;7.60;;
26478;SDS011;14163;-26.142;27.992;2024-03-23T02:22:36;8.23;;;6.60;;
26478;SDS011;14163;-26.142;27.992;2024-03-23T02:25:06;8.73;;;7.33;;
26478;SDS011;14163;-26.142;27.992;2024-03-23T02:27:35;8.10;;;7.40;;
26478;SDS011;14163;-26.142;27.992;2024-03-23T02:30:05;7.97;;;7.03;;
26478;SDS011;14163;-26.142;27.992;2024-03-23T02:32:34;9.67;;;8.00;;
26478;SDS011;14163;-26.142;27.992;2024-03-23T02:35:02;7.83;;;7.07;;
26478;SDS011;14163;-26.142;27.992;2024-03-23T02:37:31;9.87;;;7.70;;
26478;SDS011;14163;-26.142;27.992;2024-03-23T02:39:59;8.00;;;7.03;;
26478;SDS011;14163;-26.142;27.992;2024-03-23T02:42:29;9.10;;;7.50;;
26478;SDS011;14163;-26.142;27.992;2024-03-23T02:44:57;8.63;;;7.13;;
26478;SDS011;14163;-26.142;27.992;2024-03-23T02:47:26;8.27;;;7.57;;
26478;SDS011;14163;-26.142;27.992;2024-03-23T02:49:54;7.83;;;7.03;;
26478;SDS011;14163;-26.142;27.992;2024-03-23T02:52:23;10.37;;;7.80;;
26478;SDS011;14163;-26.142;27.992;2024-03-23T02:54:50;10.03;;;8.30;;
26478;SDS011;14163;-26.142;27.992;2024-03-23T02:57:19;9.80;;;8.07;;
26478;SDS011;14163;-26.142;27.992;2024-03-23T02:59:49;10.90;;;8.50;;
26478;SDS011;14163;-26.142;27.992;2024-03-23T03:02:17;11.80;;;8.00;;
26478;SDS011;14163;-26.142;27.992;2024-03-23T03:04:46;11.50;;;8.10;;
26478;SDS011;14163;-26.142;27.992;2024-03-23T03:07:15;10.47;;;8.40;;
26478;SDS011;14163;-26.142;27.992;2024-03-23T03:09:43;10.07;;;8.70;;
26478;SDS011;14163;-26.142;27.992;2024-03-23T03:12:11;9.40;;;8.50;;
26478;SDS011;14163;-26.142;27.992;2024-03-23T03:14:40;9.37;;;8.47;;
26478;SDS011;14163;-26.142;27.992;2024-03-23T03:17:10;10.63;;;8.07;;
26478;SDS011;14163;-26.142;27.992;2024-03-23T03:19:39;9.10;;;8.10;;
26478;SDS011;14163;-26.142;27.992;2024-03-23T03:22:06;10.67;;;8.53;;
26478;SDS011;14163;-26.142;27.992;2024-03-23T03:24:35;12.43;;;9.40;;
26478;SDS011;14163;-26.142;27.992;2024-03-23T03:27:03;9.40;;;8.17;;
26478;SDS011;14163;-26.142;27.992;2024-03-23T03:29:32;8.73;;;7.73;;
26478;SDS011;14163;-26.142;27.992;2024-03-23T03:32:02;9.33;;;8.40;;
26478;SDS011;14163;-26.142;27.992;2024-03-23T03:34:32;10.87;;;9.50;;
26478;SDS011;14163;-26.142;27.992;2024-03-23T03:37:00;12.93;;;9.93;;
26478;SDS011;14163;-26.142;27.992;2024-03-23T03:39:29;12.43;;;10.03;;
26478;SDS011;14163;-26.142;27.992;2024-03-23T03:41:56;10.87;;;8.23;;
26478;SDS011;14163;-26.142;27.992;2024-03-23T03:44:26;11.57;;;9.10;;
26478;SDS011;14163;-26.142;27.992;2024-03-23T03:46:53;8.37;;;7.67;;
26478;SDS011;14163;-26.142;27.992;2024-03-23T03:49:22;10.20;;;7.93;;
26478;SDS011;14163;-26.142;27.992;2024-03-23T03:51:52;12.23;;;7.80;;
26478;SDS011;14163;-26.142;27.992;2024-03-23T03:54:21;11.47;;;8.50;;
26478;SDS011;14163;-26.142;27.992;2024-03-23T03:56:48;14.67;;;9.40;;
26478;SDS011;14163;-26.142;27.992;2024-03-23T03:59:17;8.80;;;7.93;;
26478;SDS011;14163;-26.142;27.992;2024-03-23T04:01:46;10.50;;;9.50;;
26478;SDS011;14163;-26.142;27.992;2024-03-23T04:04:15;9.77;;;7.70;;
26478;SDS011;14163;-26.142;27.992;2024-03-23T04:06:43;9.17;;;8.27;;
26478;SDS011;14163;-26.142;27.992;2024-03-23T04:09:13;9.40;;;8.40;;
26478;SDS011;14163;-26.142;27.992;2024-03-23T04:11:41;14.07;;;8.70;;
26478;SDS011;14163;-26.142;27.992;2024-03-23T04:14:10;11.03;;;8.00;;
26478;SDS011;14163;-26.142;27.992;2024-03-23T04:16:37;10.60;;;9.50;;
26478;SDS011;14163;-26.142;27.992;2024-03-23T04:19:06;11.60;;;8.90;;
26478;SDS011;14163;-26.142;27.992;2024-03-23T04:21:35;17.00;;;9.07;;
26478;SDS011;14163;-26.142;27.992;2024-03-23T04:24:05;12.93;;;9.07;;
26478;SDS011;14163;-26.142;27.992;2024-03-23T04:26:41;13.63;;;8.23;;
26478;SDS011;14163;-26.142;27.992;2024-03-23T04:29:11;9.17;;;8.27;;
26478;SDS011;14163;-26.142;27.992;2024-03-23T04:31:39;12.23;;;9.60;;
26478;SDS011;14163;-26.142;27.992;2024-03-23T04:34:08;10.20;;;8.67;;
26478;SDS011;14163;-26.142;27.992;2024-03-23T04:36:35;11.63;;;9.50;;
26478;SDS011;14163;-26.142;27.992;2024-03-23T04:39:05;10.77;;;9.67;;
26478;SDS011;14163;-26.142;27.992;2024-03-23T04:41:35;13.73;;;9.23;;
26478;SDS011;14163;-26.142;27.992;2024-03-23T04:44:06;11.70;;;9.20;;
26478;SDS011;14163;-26.142;27.992;2024-03-23T04:46:35;10.77;;;9.13;;
26478;SDS011;14163;-26.142;27.992;2024-03-23T04:49:04;13.47;;;10.83;;
26478;SDS011;14163;-26.142;27.992;2024-03-23T04:51:35;13.70;;;10.20;;
26478;SDS011;14163;-26.142;27.992;2024-03-23T04:54:05;12.70;;;9.83;;
26478;SDS011;14163;-26.142;27.992;2024-03-23T04:56:33;12.93;;;10.40;;
26478;SDS011;14163;-26.142;27.992;2024-03-23T04:59:02;11.77;;;10.57;;
26478;SDS011;14163;-26.142;27.992;2024-03-23T05:01:32;13.13;;;10.10;;
26478;SDS011;14163;-26.142;27.992;2024-03-23T05:04:01;14.47;;;10.67;;
26478;SDS011;14163;-26.142;27.992;2024-03-23T05:06:29;12.70;;;11.40;;
26478;SDS011;14163;-26.142;27.992;2024-03-23T05:08:58;10.67;;;9.63;;
26478;SDS011;14163;-26.142;27.992;2024-03-23T05:11:26;10.27;;;9.37;;
26478;SDS011;14163;-26.142;27.992;2024-03-23T05:13:54;10.97;;;9.30;;
26478;SDS011;14163;-26.142;27.992;2024-03-23T05:16:22;13.17;;;10.40;;
26478;SDS011;14163;-26.142;27.992;2024-03-23T05:18:53;10.53;;;8.87;;
26478;SDS011;14163;-26.142;27.992;2024-03-23T05:21:21;12.63;;;11.33;;
26478;SDS011;14163;-26.142;27.992;2024-03-23T05:23:50;14.37;;;9.60;;
26478;SDS011;14163;-26.142;27.992;2024-03-23T05:26:17;22.67;;;19.00;;
26478;SDS011;14163;-26.142;27.992;2024-03-23T05:28:46;19.37;;;15.70;;
26478;SDS011;14163;-26.142;27.992;2024-03-23T05:31:22;39.00;;;28.63;;
26478;SDS011;14163;-26.142;27.992;2024-03-23T05:33:53;13.70;;;11.07;;
26478;SDS011;14163;-26.142;27.992;2024-03-23T05:36:21;12.90;;;10.30;;
26478;SDS011;14163;-26.142;27.992;2024-03-23T05:38:50;11.63;;;10.43;;
26478;SDS011;14163;-26.142;27.992;2024-03-23T05:41:18;12.13;;;10.13;;
26478;SDS011;14163;-26.142;27.992;2024-03-23T05:43:49;15.07;;;11.80;;
26478;SDS011;14163;-26.142;27.992;2024-03-23T05:46:17;13.37;;;10.70;;
26478;SDS011;14163;-26.142;27.992;2024-03-23T05:48:46;10.57;;;8.70;;
26478;SDS011;14163;-26.142;27.992;2024-03-23T05:51:15;13.30;;;10.77;;
26478;SDS011;14163;-26.142;27.992;2024-03-23T05:53:44;12.27;;;9.60;;
26478;SDS011;14163;-26.142;27.992;2024-03-23T05:56:12;12.50;;;10.20;;
26478;SDS011;14163;-26.142;27.992;2024-03-23T05:58:41;7.10;;;6.40;;
26478;SDS011;14163;-26.142;27.992;2024-03-23T06:01:09;7.00;;;6.40;;
26478;SDS011;14163;-26.142;27.992;2024-03-23T06:03:38;7.53;;;6.47;;
26478;SDS011;14163;-26.142;27.992;2024-03-23T06:06:06;8.50;;;7.10;;
26478;SDS011;14163;-26.142;27.992;2024-03-23T06:08:39;8.67;;;7.47;;
26478;SDS011;14163;-26.142;27.992;2024-03-23T06:11:06;9.10;;;7.10;;
26478;SDS011;14163;-26.142;27.992;2024-03-23T06:13:35;6.37;;;5.93;;
26478;SDS011;14163;-26.142;27.992;2024-03-23T06:16:04;7.00;;;6.13;;
26478;SDS011;14163;-26.142;27.992;2024-03-23T06:18:33;8.70;;;6.73;;
26478;SDS011;14163;-26.142;27.992;2024-03-23T06:21:02;9.80;;;6.97;;
26478;SDS011;14163;-26.142;27.992;2024-03-23T06:23:30;6.77;;;6.17;;
26478;SDS011;14163;-26.142;27.992;2024-03-23T06:26:00;6.03;;;5.43;;
26478;SDS011;14163;-26.142;27.992;2024-03-23T06:28:28;10.60;;;8.40;;
26478;SDS011;14163;-26.142;27.992;2024-03-23T06:30:57;7.50;;;6.70;;
26478;SDS011;14163;-26.142;27.992;2024-03-23T06:33:24;13.40;;;7.93;;
26478;SDS011;14163;-26.142;27.992;2024-03-23T06:35:54;8.63;;;7.80;;
26478;SDS011;14163;-26.142;27.992;2024-03-23T06:38:22;10.40;;;7.60;;
26478;SDS011;14163;-26.142;27.992;2024-03-23T06:40:50;10.03;;;6.73;;
26478;SDS011;14163;-26.142;27.992;2024-03-23T06:43:20;9.53;;;6.60;;
26478;SDS011;14163;-26.142;27.992;2024-03-23T06:45:52;8.23;;;7.17;;
26478;SDS011;14163;-26.142;27.992;2024-03-23T06:48:20;8.03;;;7.30;;
26478;SDS011;14163;-26.142;27.992;2024-03-23T06:50:49;12.00;;;8.20;;
26478;SDS011;14163;-26.142;27.992;2024-03-23T06:53:21;13.50;;;7.20;;
26478;SDS011;14163;-26.142;27.992;2024-03-23T06:55:50;6.10;;;5.60;;
26478;SDS011;14163;-26.142;27.992;2024-03-23T06:58:21;7.83;;;6.37;;
26478;SDS011;14163;-26.142;27.992;2024-03-23T07:00:51;9.70;;;6.77;;
26478;SDS011;14163;-26.142;27.992;2024-03-23T07:03:19;10.00;;;8.60;;
26478;SDS011;14163;-26.142;27.992;2024-03-23T07:05:49;10.33;;;9.23;;
26478;SDS011;14163;-26.142;27.992;2024-03-23T07:08:17;10.00;;;9.07;;
26478;SDS011;14163;-26.142;27.992;2024-03-23T07:10:47;12.73;;;11.63;;
26478;SDS011;14163;-26.142;27.992;2024-03-23T07:13:15;12.10;;;10.73;;
26478;SDS011;14163;-26.142;27.992;2024-03-23T07:15:49;12.40;;;10.43;;
26478;SDS011;14163;-26.142;27.992;2024-03-23T07:18:18;11.90;;;10.17;;
26478;SDS011;14163;-26.142;27.992;2024-03-23T07:20:52;12.33;;;11.33;;
26478;SDS011;14163;-26.142;27.992;2024-03-23T07:23:19;18.23;;;16.40;;
26478;SDS011;14163;-26.142;27.992;2024-03-23T07:25:56;16.30;;;14.80;;
26478;SDS011;14163;-26.142;27.992;2024-03-23T07:28:24;15.30;;;13.97;;
26478;SDS011;14163;-26.142;27.992;2024-03-23T07:31:04;22.23;;;20.27;;
26478;SDS011;14163;-26.142;27.992;2024-03-23T07:33:32;18.77;;;16.93;;
26478;SDS011;14163;-26.142;27.992;2024-03-23T07:36:01;20.63;;;18.73;;
26478;SDS011;14163;-26.142;27.992;2024-03-23T07:38:29;16.60;;;15.00;;
26478;SDS011;14163;-26.142;27.992;2024-03-23T07:41:05;17.53;;;16.03;;
26478;SDS011;14163;-26.142;27.992;2024-03-23T07:43:33;16.47;;;15.07;;
26478;SDS011;14163;-26.142;27.992;2024-03-23T07:46:04;17.63;;;15.97;;
26478;SDS011;14163;-26.142;27.992;2024-03-23T07:48:32;13.70;;;12.50;;
26478;SDS011;14163;-26.142;27.992;2024-03-23T07:51:01;12.53;;;11.43;;
26478;SDS011;14163;-26.142;27.992;2024-03-23T07:53:30;15.27;;;13.67;;
26478;SDS011;14163;-26.142;27.992;2024-03-23T07:55:59;13.40;;;12.20;;
26478;SDS011;14163;-26.142;27.992;2024-03-23T07:58:27;11.90;;;11.00;;
26478;SDS011;14163;-26.142;27.992;2024-03-23T08:01:01;13.20;;;11.80;;
26478;SDS011;14163;-26.142;27.992;2024-03-23T08:03:34;13.17;;;11.93;;
26478;SDS011;14163;-26.142;27.992;2024-03-23T08:06:09;14.43;;;12.90;;
26478;SDS011;14163;-26.142;27.992;2024-03-23T08:08:40;16.83;;;12.37;;
26478;SDS011;14163;-26.142;27.992;2024-03-23T08:11:08;13.57;;;12.30;;
26478;SDS011;14163;-26.142;27.992;2024-03-23T08:13:38;15.23;;;13.87;;
26478;SDS011;14163;-26.142;27.992;2024-03-23T08:16:08;16.13;;;14.60;;
26478;SDS011;14163;-26.142;27.992;2024-03-23T08:18:37;22.07;;;20.17;;
26478;SDS011;14163;-26.142;27.992;2024-03-23T08:21:06;18.63;;;16.83;;
26478;SDS011;14163;-26.142;27.992;2024-03-23T08:23:35;16.37;;;14.97;;
26478;SDS011;14163;-26.142;27.992;2024-03-23T08:26:05;22.73;;;18.80;;
26478;SDS011;14163;-26.142;27.992;2024-03-23T08:28:34;21.20;;;19.27;;
26478;SDS011;14163;-26.142;27.992;2024-03-23T08:31:03;29.77;;;26.77;;
26478;SDS011;14163;-26.142;27.992;2024-03-23T08:33:35;24.07;;;21.70;;
26478;SDS011;14163;-26.142;27.992;2024-03-23T08:36:03;25.17;;;22.60;;
26478;SDS011;14163;-26.142;27.992;2024-03-23T08:38:33;22.10;;;20.10;;
26478;SDS011;14163;-26.142;27.992;2024-03-23T08:41:01;21.00;;;19.10;;
26478;SDS011;14163;-26.142;27.992;2024-03-23T08:43:31;24.47;;;21.87;;
26478;SDS011;14163;-26.142;27.992;2024-03-23T08:46:03;21.87;;;19.87;;
26478;SDS011;14163;-26.142;27.992;2024-03-23T08:48:32;21.50;;;19.57;;
26478;SDS011;14163;-26.142;27.992;2024-03-23T08:51:02;30.60;;;27.40;;
26478;SDS011;14163;-26.142;27.992;2024-03-23T08:53:32;31.73;;;28.40;;
26478;SDS011;14163;-26.142;27.992;2024-03-23T08:56:00;30.03;;;27.03;;
26478;SDS011;14163;-26.142;27.992;2024-03-23T08:58:29;54.50;;;48.83;;
26478;SDS011;14163;-26.142;27.992;2024-03-23T09:01:04;44.10;;;40.13;;
26478;SDS011;14163;-26.142;27.992;2024-03-23T09:03:36;22.73;;;20.80;;
26478;SDS011;14163;-26.142;27.992;2024-03-23T09:06:06;28.80;;;26.40;;
26478;SDS011;14163;-26.142;27.992;2024-03-23T09:08:36;20.90;;;19.03;;
26478;SDS011;14163;-26.142;27.992;2024-03-23T09:11:05;21.57;;;19.67;;
26478;SDS011;14163;-26.142;27.992;2024-03-23T09:13:34;18.27;;;16.67;;
26478;SDS011;14163;-26.142;27.992;2024-03-23T09:16:03;20.57;;;18.47;;
26478;SDS011;14163;-26.142;27.992;2024-03-23T09:18:36;16.93;;;15.53;;
26478;SDS011;14163;-26.142;27.992;2024-03-23T09:21:06;20.87;;;18.97;;
26478;SDS011;14163;-26.142;27.992;2024-03-23T09:23:40;18.20;;;16.80;;
26478;SDS011;14163;-26.142;27.992;2024-03-23T09:26:09;17.47;;;15.77;;
26478;SDS011;14163;-26.142;27.992;2024-03-23T09:28:38;19.27;;;17.20;;
26478;SDS011;14163;-26.142;27.992;2024-03-23T09:31:06;15.67;;;14.37;;
26478;SDS011;14163;-26.142;27.992;2024-03-23T09:33:41;16.40;;;14.93;;
26478;SDS011;14163;-26.142;27.992;2024-03-23T09:36:09;15.60;;;14.33;;
26478;SDS011;14163;-26.142;27.992;2024-03-23T09:38:38;20.80;;;18.70;;
26478;SDS011;14163;-26.142;27.992;2024-03-23T09:41:07;17.17;;;15.67;;
26478;SDS011;14163;-26.142;27.992;2024-03-23T09:43:37;15.97;;;14.47;;
26478;SDS011;14163;-26.142;27.992;2024-03-23T09:46:05;15.53;;;14.43;;
26478;SDS011;14163;-26.142;27.992;2024-03-23T09:48:35;16.90;;;15.47;;
26478;SDS011;14163;-26.142;27.992;2024-03-23T09:51:05;15.47;;;14.17;;
26478;SDS011;14163;-26.142;27.992;2024-03-23T09:53:35;16.80;;;15.10;;
26478;SDS011;14163;-26.142;27.992;2024-03-23T09:56:04;15.63;;;14.40;;
26478;SDS011;14163;-26.142;27.992;2024-03-23T09:58:34;14.77;;;13.77;;
26478;SDS011;14163;-26.142;27.992;2024-03-23T10:01:02;14.67;;;13.67;;
26478;SDS011;14163;-26.142;27.992;2024-03-23T10:03:33;15.80;;;14.57;;
26478;SDS011;14163;-26.142;27.992;2024-03-23T10:06:11;15.13;;;13.93;;
26478;SDS011;14163;-26.142;27.992;2024-03-23T10:08:40;13.90;;;12.80;;
26478;SDS011;14163;-26.142;27.992;2024-03-23T10:11:14;19.50;;;17.90;;
26478;SDS011;14163;-26.142;27.992;2024-03-23T10:13:44;23.77;;;21.57;;
26478;SDS011;14163;-26.142;27.992;2024-03-23T10:16:12;19.90;;;18.30;;
26478;SDS011;14163;-26.142;27.992;2024-03-23T10:18:49;23.40;;;21.20;;
26478;SDS011;14163;-26.142;27.992;2024-03-23T10:21:19;20.80;;;18.93;;
26478;SDS011;14163;-26.142;27.992;2024-03-23T10:23:48;18.20;;;16.40;;
26478;SDS011;14163;-26.142;27.992;2024-03-23T10:26:17;17.97;;;16.30;;
26478;SDS011;14163;-26.142;27.992;2024-03-23T10:28:54;15.90;;;14.60;;
26478;SDS011;14163;-26.142;27.992;2024-03-23T10:31:26;17.33;;;15.83;;
26478;SDS011;14163;-26.142;27.992;2024-03-23T10:33:56;17.07;;;15.47;;
26478;SDS011;14163;-26.142;27.992;2024-03-23T10:36:26;16.87;;;15.30;;
26478;SDS011;14163;-26.142;27.992;2024-03-23T10:38:55;17.23;;;15.03;;
26478;SDS011;14163;-26.142;27.992;2024-03-23T10:41:25;16.90;;;15.40;;
26478;SDS011;14163;-26.142;27.992;2024-03-23T10:43:55;19.03;;;17.23;;
26478;SDS011;14163;-26.142;27.992;2024-03-23T10:46:24;15.23;;;13.80;;
26478;SDS011;14163;-26.142;27.992;2024-03-23T10:48:54;17.17;;;15.47;;
26478;SDS011;14163;-26.142;27.992;2024-03-23T10:51:22;20.33;;;17.70;;
26478;SDS011;14163;-26.142;27.992;2024-03-23T10:53:52;18.37;;;16.50;;
26478;SDS011;14163;-26.142;27.992;2024-03-23T10:56:22;18.60;;;16.70;;
26478;SDS011;14163;-26.142;27.992;2024-03-23T10:58:51;19.53;;;17.63;;
26478;SDS011;14163;-26.142;27.992;2024-03-23T11:01:19;21.83;;;17.83;;
26478;SDS011;14163;-26.142;27.992;2024-03-23T11:03:48;18.27;;;16.53;;
26478;SDS011;14163;-26.142;27.992;2024-03-23T11:09:04;42.47;;;33.97;;
26478;SDS011;14163;-26.142;27.992;2024-03-23T11:12:29;25.87;;;19.13;;
26478;SDS011;14163;-26.142;27.992;2024-03-23T11:15:02;23.43;;;19.07;;
26478;SDS011;14163;-26.142;27.992;2024-03-23T11:17:31;22.67;;;20.20;;
26478;SDS011;14163;-26.142;27.992;2024-03-23T11:20:00;21.53;;;18.53;;
26478;SDS011;14163;-26.142;27.992;2024-03-23T11:22:38;20.57;;;18.30;;
26478;SDS011;14163;-26.142;27.992;2024-03-23T11:25:14;19.50;;;17.40;;
26478;SDS011;14163;-26.142;27.992;2024-03-23T11:27:44;18.80;;;16.80;;
26478;SDS011;14163;-26.142;27.992;2024-03-23T11:30:13;19.30;;;17.40;;
26478;SDS011;14163;-26.142;27.992;2024-03-23T11:32:43;17.77;;;15.97;;
26478;SDS011;14163;-26.142;27.992;2024-03-23T11:38:02;22.40;;;20.23;;
26478;SDS011;14163;-26.142;27.992;2024-03-23T11:40:33;22.67;;;20.37;;
26478;SDS011;14163;-26.142;27.992;2024-03-23T11:43:02;14.63;;;13.10;;
26478;SDS011;14163;-26.142;27.992;2024-03-23T11:45:35;13.67;;;12.20;;
26478;SDS011;14163;-26.142;27.992;2024-03-23T11:48:04;11.80;;;10.67;;
26478;SDS011;14163;-26.142;27.992;2024-03-23T11:50:35;16.90;;;15.40;;
26478;SDS011;14163;-26.142;27.992;2024-03-23T11:53:11;14.87;;;13.43;;
26478;SDS011;14163;-26.142;27.992;2024-03-23T11:55:43;12.30;;;11.10;;
26478;SDS011;14163;-26.142;27.992;2024-03-23T11:58:15;11.80;;;10.70;;
26478;SDS011;14163;-26.142;27.992;2024-03-23T12:00:49;12.63;;;11.33;;
26478;SDS011;14163;-26.142;27.992;2024-03-23T12:03:17;10.03;;;9.20;;
26478;SDS011;14163;-26.142;27.992;2024-03-23T12:05:51;10.73;;;9.90;;
26478;SDS011;14163;-26.142;27.992;2024-03-23T12:08:20;13.10;;;11.80;;
26478;SDS011;14163;-26.142;27.992;2024-03-23T12:10:53;14.40;;;13.20;;
26478;SDS011;14163;-26.142;27.992;2024-03-23T12:13:31;9.10;;;8.47;;
26478;SDS011;14163;-26.142;27.992;2024-03-23T12:16:08;9.43;;;8.70;;
26478;SDS011;14163;-26.142;27.992;2024-03-23T12:18:37;8.73;;;8.20;;
26478;SDS011;14163;-26.142;27.992;2024-03-23T12:21:07;8.53;;;7.93;;
26478;SDS011;14163;-26.142;27.992;2024-03-23T12:23:35;8.40;;;7.70;;
26478;SDS011;14163;-26.142;27.992;2024-03-23T12:26:08;9.70;;;9.00;;
26478;SDS011;14163;-26.142;27.992;2024-03-23T12:28:36;9.67;;;8.87;;
26478;SDS011;14163;-26.142;27.992;2024-03-23T12:31:05;8.63;;;8.02;;
26478;SDS011;14163;-26.142;27.992;2024-03-23T12:33:32;8.00;;;7.50;;
26478;SDS011;14163;-26.142;27.992;2024-03-23T12:36:01;7.47;;;7.07;;
26478;SDS011;14163;-26.142;27.992;2024-03-23T12:38:30;8.43;;;7.70;;
26478;SDS011;14163;-26.142;27.992;2024-03-23T12:40:59;7.90;;;7.40;;
26478;SDS011;14163;-26.142;27.992;2024-03-23T12:43:29;9.20;;;8.50;;
26478;SDS011;14163;-26.142;27.992;2024-03-23T12:45:57;8.43;;;7.80;;
26478;SDS011;14163;-26.142;27.992;2024-03-23T12:48:25;10.17;;;9.47;;
26478;SDS011;14163;-26.142;27.992;2024-03-23T12:50:54;9.70;;;9.07;;
26478;SDS011;14163;-26.142;27.992;2024-03-23T12:53:22;10.90;;;9.80;;
26478;SDS011;14163;-26.142;27.992;2024-03-23T12:55:51;11.60;;;10.63;;
26478;SDS011;14163;-26.142;27.992;2024-03-23T12:58:18;13.20;;;12.10;;
26478;SDS011;14163;-26.142;27.992;2024-03-23T13:00:49;13.27;;;12.27;;
26478;SDS011;14163;-26.142;27.992;2024-03-23T13:03:17;12.47;;;11.57;;
26478;SDS011;14163;-26.142;27.992;2024-03-23T13:05:51;12.37;;;11.30;;
26478;SDS011;14163;-26.142;27.992;2024-03-23T13:08:19;13.10;;;10.43;;
26478;SDS011;14163;-26.142;27.992;2024-03-23T13:10:51;10.90;;;10.10;;
26478;SDS011;14163;-26.142;27.992;2024-03-23T13:13:18;11.53;;;10.37;;
26478;SDS011;14163;-26.142;27.992;2024-03-23T13:15:51;18.80;;;10.50;;
26478;SDS011;14163;-26.142;27.992;2024-03-23T13:18:19;12.57;;;11.40;;
26478;SDS011;14163;-26.142;27.992;2024-03-23T13:20:48;12.70;;;11.70;;
26478;SDS011;14163;-26.142;27.992;2024-03-23T13:23:15;22.27;;;20.17;;
26478;SDS011;14163;-26.142;27.992;2024-03-23T13:25:49;16.33;;;15.03;;
26478;SDS011;14163;-26.142;27.992;2024-03-23T13:28:18;14.73;;;13.53;;
26478;SDS011;14163;-26.142;27.992;2024-03-23T13:30:52;15.70;;;14.50;;
26478;SDS011;14163;-26.142;27.992;2024-03-23T13:33:20;15.50;;;14.13;;
26478;SDS011;14163;-26.142;27.992;2024-03-23T13:35:50;19.07;;;17.57;;
26478;SDS011;14163;-26.142;27.992;2024-03-23T13:38:17;17.20;;;15.70;;
26478;SDS011;14163;-26.142;27.992;2024-03-23T13:40:51;17.00;;;15.60;;
26478;SDS011;14163;-26.142;27.992;2024-03-23T13:46:11;16.37;;;15.17;;
26478;SDS011;14163;-26.142;27.992;2024-03-23T13:48:40;16.60;;;15.30;;
26478;SDS011;14163;-26.142;27.992;2024-03-23T13:51:15;18.80;;;17.30;;
26478;SDS011;14163;-26.142;27.992;2024-03-23T13:56:40;36.93;;;32.40;;
26478;SDS011;14163;-26.142;27.992;2024-03-23T16:04:46;17.90;;;16.40;;
26478;SDS011;14163;-26.142;27.992;2024-03-23T16:07:15;13.10;;;11.83;;
26478;SDS011;14163;-26.142;27.992;2024-03-23T16:09:43;12.50;;;11.53;;
26478;SDS011;14163;-26.142;27.992;2024-03-23T16:12:12;12.23;;;11.23;;
26478;SDS011;14163;-26.142;27.992;2024-03-23T16:14:40;14.10;;;12.87;;
26478;SDS011;14163;-26.142;27.992;2024-03-23T16:17:09;15.37;;;14.07;;
26478;SDS011;14163;-26.142;27.992;2024-03-23T16:19:36;16.40;;;14.90;;
26478;SDS011;14163;-26.142;27.992;2024-03-23T16:22:07;12.40;;;11.30;;
26478;SDS011;14163;-26.142;27.992;2024-03-23T16:24:35;15.80;;;14.10;;
26478;SDS011;14163;-26.142;27.992;2024-03-23T16:27:04;15.37;;;14.03;;
26478;SDS011;14163;-26.142;27.992;2024-03-23T16:29:32;16.50;;;15.10;;
26478;SDS011;14163;-26.142;27.992;2024-03-23T16:32:02;16.20;;;14.70;;
26478;SDS011;14163;-26.142;27.992;2024-03-23T16:34:30;14.57;;;13.17;;
26478;SDS011;14163;-26.142;27.992;2024-03-23T16:36:59;12.13;;;11.13;;
26478;SDS011;14163;-26.142;27.992;2024-03-23T16:39:30;11.80;;;10.83;;
26478;SDS011;14163;-26.142;27.992;2024-03-23T16:42:01;12.43;;;11.40;;
26478;SDS011;14163;-26.142;27.992;2024-03-23T16:44:30;13.63;;;12.40;;
26478;SDS011;14163;-26.142;27.992;2024-03-23T16:46:59;13.53;;;12.23;;
26478;SDS011;14163;-26.142;27.992;2024-03-23T16:49:27;12.17;;;11.17;;
26478;SDS011;14163;-26.142;27.992;2024-03-23T16:51:56;13.63;;;12.23;;
26478;SDS011;14163;-26.142;27.992;2024-03-23T16:54:24;14.90;;;13.53;;
26478;SDS011;14163;-26.142;27.992;2024-03-23T16:56:55;16.00;;;14.40;;
26478;SDS011;14163;-26.142;27.992;2024-03-23T16:59:29;15.53;;;14.13;;
26478;SDS011;14163;-26.142;27.992;2024-03-23T17:01:59;16.50;;;14.90;;
26478;SDS011;14163;-26.142;27.992;2024-03-23T17:04:26;18.37;;;16.77;;
26478;SDS011;14163;-26.142;27.992;2024-03-23T17:06:55;17.23;;;15.63;;
26478;SDS011;14163;-26.142;27.992;2024-03-23T17:09:23;17.03;;;15.53;;
26478;SDS011;14163;-26.142;27.992;2024-03-23T17:11:57;18.40;;;16.60;;
26478;SDS011;14163;-26.142;27.992;2024-03-23T17:14:32;18.37;;;16.43;;
26478;SDS011;14163;-26.142;27.992;2024-03-23T17:17:01;16.63;;;15.07;;
26478;SDS011;14163;-26.142;27.992;2024-03-23T17:19:29;62.03;;;47.37;;
26478;SDS011;14163;-26.142;27.992;2024-03-23T17:21:58;19.67;;;17.87;;
26478;SDS011;14163;-26.142;27.992;2024-03-23T17:24:26;16.17;;;14.87;;
26478;SDS011;14163;-26.142;27.992;2024-03-23T17:26:55;15.03;;;13.73;;